Terminal Aerodrome Forecast
Issued by NWS

Home | Current Version | Previous Version | Text Only | Print | Product List | Glossary On
Versions: 1 2 3 4 5 6 7 8 9 10 11 12
000
FTUS46 KSGX 050520
TAFPSP
TAF
KPSP 050520Z 0506/0606 32016KT P6SM SKC
     FM050700 32007KT P6SM SKC
     FM051900 10008KT P6SM SCT080
     FM052200 32014G22KT P6SM SCT080=

USA.gov is the U.S. government's official web portal to all federal, state and local government web resources and services.